Accueil
METAR-TAF:

METAR-TAF

Aéroports :

Saragosse, Espagne

Aéroport de Saragosse

latitude: 41-40N, longitude: 001-01W, altitude: 263 m

Observation

Le bulletin a été fait il y a 25 minutes, à 03:00 UTC
Vent 7 kt de ouest
Température 13°C
Humidité 82%
Pression 1011 hPa
Visibilité 10 km ou plus
Nuages épars à une hauteur de 2000 ft
Nuages fragmentés à une hauteur de 3500 ft

METAR: LEZG 190300Z 28007KT 9999 SCT020 BKN035 13/10 Q1011

Heure: 05:25 (03:25 UTC)

Prévision

Le bulletin a été fait il y a 4 heures et 25 minutes, à 23:00 UTC
Prévision valable du 19 à 00 UTC au 19 à 24 UTC
Vent 6 kt de ouest
Visibilité 10 km ou plus
Nuages épars à une hauteur de 1400 ft
Nuages fragmentés à une hauteur de 6000 ft
Temporairement
du 19 à 10 UTC au 19 à 18 UTC
Vent 6 kt de ouest/nord-ouest

TAF: LEZG 182300Z 1900/1924 26006KT 9999 SCT014 BKN060 TX19/1913Z TN11/1906Z TEMPO 1910/1918 30006KT

Observations et prévisions météorologiques de plus de 4000 aéroports (messages METAR et TAF).

Les stations disponibles sont représentées par des disques jaunes et rouges sur la carte.

Passer la souris dessus pour voir le nom de la station.

Cliquer dessus pour voir les observations et prévisions météorologiques.

Pour changer de carte: cliquez sur les boutons verts avec une croix noire pour zoomer, sur le bouton vert avec un tiret pour effectuer un zoom arrière, ou sur les flèches vertes pour les cartes adjacentes.


METAR-TAF: